EmailTwitter


Observations de surface / Québec / CYUL (71627)

Régions: Québec | Canada | États-Unis | Europe | France | UK | Ailleurs
Station
Affichage
Infos & localisation pour CYUL (71627) | Aide pour décoder les METARs

Observations prises le 2019-01-20 à 09H22 UTC à MONTREAL INTL A, QB (CYUL)

Etat du ciel: couvert.

Obstacle(s) à la visibilité: faible neige et poudrerie élevée.

Température: -19.0 Celsius

Point de rosée: -22.0 Celsius

Humidité relative: 77%

Facteur vent: -32.

Facteur vent (rafales): -33.

Vents: Nord-est à 33 km/h ou 18 noeuds.

Rafale du vent: 44 km/h ou 24 noeuds.

Pression au niveau moyen de la mer: 101.61 kilopascals.

Calage altimétrique: 101.56 kilopascals ou 29.99 pouces de mercure.

Visibilité horizontale: 1.25 milles terrestres ou 2.00 kilomètres.

Hauteur du plafond: 183 mètres ( 600 pieds ).

Observation METAR:

CYUL 200922Z 03018G24KT 1 1/4SM -SN BLSN OVC006 M19/M22 A2999 RMK SN5SF3 PRESFR

SLP161=